Time;durP1;ratioP1;P1;durP2;ratioP2;P2;SDS_P1;SDS_P2;PMS_P1;PMS_P2;Temp;Humidity;BMP_temperature;BMP_pressure;BME280_temperature;BME280_humidity;BME280_pressure;Samples;Min_cycle;Max_cycle;Signal;HPM_P1;HPM_P2
2021/05/01 10:45:27;;;;;;;;;;;;;;;20.93;48.45;95742.84;5113281;27;19920;-62
2021/05/01 10:48:03;;;;;;;;;;;;;;;20.91;49.16;95742.66;5112069;28;19924;-62
2021/05/01 10:50:29;;;;;;;;;;;;;;;20.89;50.60;95746.06;5110721;27;20351;-62
2021/05/01 10:52:58;;;;;;;;;;;;;;;20.90;49.68;95750.31;5112395;28;19924;-61
2021/05/01 10:55:25;;;;;;;;;;;;;;;20.89;49.71;95748.84;5107444;28;19925;-66
2021/05/01 10:58:01;;;;;;;;;;;;;;;20.88;50.02;95742.53;5099529;28;20226;-66
2021/05/01 11:00:36;;;;;;;;;;;;;;;20.93;48.15;95745.63;5102103;28;20395;-67
2021/05/01 11:03:02;;;;;;;;;;;;;;;20.99;48.42;95748.91;4385145;27;10000717;-63
2021/05/01 11:05:36;;;;;;;;;;;;;;;21.01;48.56;95740.69;5095529;28;20383;-66
2021/05/01 11:08:04;;;;;;;;;;;;;;;21.00;47.76;95742.75;5083634;28;101884;-62
2021/05/01 11:10:31;;;;;;;;;;;;;;;20.99;47.57;95740.53;5086503;28;19925;-64
2021/05/01 11:12:59;;;;;;;;;;;;;;;20.97;47.68;95743.91;5091454;27;20422;-66
2021/05/01 11:15:26;;;;;;;;;;;;;;;20.96;47.87;95739.63;5087723;28;20414;-64
2021/05/01 11:17:55;;;;;;;;;;;;;;;20.95;47.71;95740.94;5060767;28;67512;-63
2021/05/01 11:20:22;;;;;;;;;;;;;;;20.92;47.68;95742.13;5081249;27;19974;-65
2021/05/01 11:22:51;;;;;;;;;;;;;;;20.91;47.95;95740.63;5106109;28;20322;-64
2021/05/01 11:25:17;;;;;;;;;;;;;;;20.89;47.80;95751.63;5100419;28;19924;-65
2021/05/01 11:27:51;;;;;;;;;;;;;;;20.94;48.27;95745.06;5105709;28;19933;-66
2021/05/01 11:30:20;;;;;;;;;;;;;;;20.96;47.95;95748.03;5101617;28;20353;-64
2021/05/01 11:32:47;;;;;;;;;;;;;;;20.94;48.44;95742.25;5109795;28;20008;-64
2021/05/01 11:35:15;;;;;;;;;;;;;;;20.97;48.72;95741.13;5094235;28;19924;-64
2021/05/01 11:37:42;;;;;;;;;;;;;;;20.98;49.21;95739.06;5094371;28;19935;-64
2021/05/01 11:40:09;;;;;;;;;;;;;;;20.97;49.09;95729.19;5097038;28;20387;-64
2021/05/01 11:42:36;;;;;;;;;;;;;;;20.99;49.11;95738.50;5105663;28;20387;-63
2021/05/01 11:45:04;;;;;;;;;;;;;;;21.01;50.42;95735.84;5103911;27;20288;-65
2021/05/01 11:47:30;;;;;;;;;;;;;;;21.79;47.91;95739.88;5095856;28;19924;-52
2021/05/01 11:49:59;;;;;;;;;;;;;;;21.98;45.29;95733.63;5100697;28;19924;-56
2021/05/01 11:52:32;;;;;;;;;;;;;;;21.90;39.93;95723.88;5099414;28;19924;-53
2021/05/01 12:30:06;;;;;;;;;;;;;;;21.55;47.46;95727.53;4746192;27;10000169;-63
2021/05/01 12:32:33;;;;;;;;;;;;;;;21.53;47.15;95705.03;5060347;27;20422;-63
2021/05/01 12:35:00;;;;;;;;;;;;;;;21.64;47.02;95691.81;5049571;28;19932;-62
2021/05/01 12:37:28;;;;;;;;;;;;;;;21.80;46.75;95687.47;5054456;28;20436;-66
2021/05/01 12:41:22;;;;;;;;;;;;;;;22.13;45.59;95693.47;5092157;27;93578;-64
2021/05/01 12:46:15;;;;;;;;;;;;;;;22.44;44.58;95701.38;5084362;27;20545;-66
2021/05/01 12:48:46;;;;;;;;;;;;;;;22.54;44.56;95669.25;5052214;28;19921;-65
2021/05/01 12:51:13;;;;;;;;;;;;;;;22.53;44.57;95672.63;5075969;27;20315;-66
2021/05/01 12:53:41;;;;;;;;;;;;;;;22.65;44.09;95678.41;5073016;27;19920;-66
2021/05/01 12:56:16;;;;;;;;;;;;;;;22.67;43.94;95676.47;5073028;27;19927;-64
2021/05/01 12:58:43;;;;;;;;;;;;;;;22.73;44.20;95678.97;5071254;27;19927;-65
2021/05/01 13:01:26;;;;;;;;;;;;;;;22.72;43.95;95683.84;5054264;28;19920;-65
2021/05/01 13:04:13;;;;;;;;;;;;;;;22.68;44.50;95669.53;5069374;28;19935;-65
2021/05/01 13:10:20;;;;;;;;;;;;;;;23.67;46.30;95671.63;5040083;28;20017;-61
